createdAt,value
2018-04-30T00:00:08.343Z,17.59
2018-04-30T00:02:36.902Z,17.49
2018-04-30T00:05:05.185Z,17.40
2018-04-30T00:07:33.498Z,17.31
2018-04-30T00:10:02.591Z,17.24
2018-04-30T00:12:31.646Z,17.17
2018-04-30T00:14:59.931Z,17.14
2018-04-30T00:17:28.442Z,17.15
2018-04-30T00:19:57.483Z,17.08
2018-04-30T00:22:25.787Z,17.08
2018-04-30T00:24:54.115Z,17.07
2018-04-30T00:27:22.400Z,16.96
2018-04-30T00:29:50.690Z,17.04
2018-04-30T00:32:19.015Z,17.02
2018-04-30T00:34:47.299Z,16.99
2018-04-30T00:37:15.589Z,16.94
2018-04-30T00:39:43.953Z,16.84
2018-04-30T00:42:12.869Z,16.78
2018-04-30T00:44:41.222Z,16.78
2018-04-30T00:47:09.565Z,16.83
2018-04-30T00:49:37.849Z,16.89
2018-04-30T00:52:06.205Z,16.85
2018-04-30T00:54:51.917Z,16.79
2018-04-30T00:57:20.481Z,16.73
2018-04-30T00:59:48.771Z,16.75
2018-04-30T01:02:17.054Z,16.71
2018-04-30T01:04:45.405Z,16.61
2018-04-30T01:07:13.939Z,16.67
2018-04-30T01:09:42.261Z,16.64
2018-04-30T01:12:10.742Z,16.57
2018-04-30T01:14:39.032Z,16.30
2018-04-30T01:17:07.328Z,16.26
2018-04-30T01:19:35.671Z,16.15
2018-04-30T01:22:04.019Z,16.19
2018-04-30T01:24:32.294Z,16.12
2018-04-30T01:27:00.615Z,16.07
2018-04-30T01:29:28.900Z,16.03
2018-04-30T01:31:57.173Z,15.82
2018-04-30T01:34:25.529Z,15.88
2018-04-30T01:36:54.559Z,15.63
2018-04-30T01:39:22.834Z,15.56
2018-04-30T01:41:51.161Z,15.30
2018-04-30T01:44:20.203Z,15.25
2018-04-30T01:46:48.486Z,15.23
2018-04-30T01:49:16.786Z,15.07
2018-04-30T01:51:45.094Z,15.05
2018-04-30T01:54:13.836Z,14.94
2018-04-30T01:56:42.126Z,14.87
2018-04-30T01:59:10.403Z,14.77
2018-04-30T02:01:38.950Z,14.58
2018-04-30T02:04:07.837Z,14.43
2018-04-30T02:06:36.669Z,14.38
2018-04-30T02:09:05.741Z,14.46
2018-04-30T02:11:34.344Z,14.33
2018-04-30T02:14:03.502Z,14.31
2018-04-30T02:16:32.394Z,14.11
2018-04-30T02:19:00.749Z,14.02
2018-04-30T02:21:29.155Z,13.94
2018-04-30T02:23:57.559Z,13.82
2018-04-30T02:26:25.865Z,13.91
2018-04-30T02:28:54.248Z,13.93
2018-04-30T02:31:22.551Z,13.79
2018-04-30T02:33:50.920Z,13.82
2018-04-30T02:36:19.212Z,13.75
2018-04-30T02:38:50.539Z,13.67
2018-04-30T02:41:19.271Z,13.74
2018-04-30T02:43:48.576Z,13.78
2018-04-30T02:46:17.450Z,13.65
2018-04-30T02:48:45.766Z,13.52
2018-04-30T02:51:14.030Z,13.38
2018-04-30T02:53:43.367Z,13.41
2018-04-30T02:56:11.659Z,13.29
2018-04-30T02:58:39.963Z,13.23
2018-04-30T03:01:08.245Z,13.26
2018-04-30T03:03:36.671Z,13.30
2018-04-30T03:06:05.679Z,13.36
2018-04-30T03:08:34.319Z,13.36
2018-04-30T03:11:03.003Z,13.19
2018-04-30T03:13:31.316Z,13.21
2018-04-30T03:16:00.362Z,13.02
2018-04-30T03:18:28.667Z,12.99
2018-04-30T03:20:56.943Z,13.01
2018-04-30T03:23:25.263Z,12.96
2018-04-30T03:25:53.539Z,13.04
2018-04-30T03:28:21.819Z,12.80
2018-04-30T03:30:50.127Z,12.66
2018-04-30T03:33:18.772Z,12.44
2018-04-30T03:35:47.338Z,12.12
2018-04-30T03:38:15.615Z,11.69
2018-04-30T03:40:43.942Z,11.35
2018-04-30T03:43:12.262Z,11.12
2018-04-30T03:45:40.535Z,10.94
2018-04-30T03:48:08.827Z,10.80
2018-04-30T03:50:37.922Z,10.81
2018-04-30T03:53:06.962Z,10.71
2018-04-30T03:55:35.246Z,10.54
2018-04-30T03:58:03.591Z,10.48
2018-04-30T04:00:49.490Z,10.50
2018-04-30T04:03:36.019Z,10.47
2018-04-30T04:19:39.575Z,10.20
2018-04-30T04:22:07.905Z,10.08
2018-04-30T04:24:36.187Z,10.11
2018-04-30T04:27:04.503Z,10.19
2018-04-30T04:29:33.379Z,10.25
2018-04-30T04:32:01.663Z,10.25
2018-04-30T04:34:29.975Z,10.19
2018-04-30T04:36:58.290Z,10.21
2018-04-30T04:39:26.571Z,10.29
2018-04-30T04:41:54.919Z,10.29
2018-04-30T04:44:23.203Z,10.26
2018-04-30T04:46:51.487Z,10.30
2018-04-30T04:49:19.798Z,10.30
2018-04-30T04:51:48.087Z,10.35
2018-04-30T04:54:17.053Z,10.29
2018-04-30T04:56:46.107Z,10.35
2018-04-30T04:59:14.403Z,10.34
2018-04-30T05:01:43.193Z,10.33
2018-04-30T05:04:11.475Z,10.28
2018-04-30T05:06:39.763Z,10.38
2018-04-30T05:09:08.530Z,10.32
2018-04-30T05:11:36.819Z,10.43
2018-04-30T05:14:05.691Z,10.37
2018-04-30T05:16:34.031Z,10.46
2018-04-30T05:19:02.968Z,10.40
2018-04-30T05:21:31.251Z,10.50
2018-04-30T05:24:00.156Z,10.58
2018-04-30T05:26:28.863Z,10.58
2018-04-30T05:28:57.850Z,10.60
2018-04-30T05:31:26.934Z,10.70
2018-04-30T05:33:55.226Z,10.69
2018-04-30T05:36:24.282Z,10.82
2018-04-30T05:38:52.602Z,10.94
2018-04-30T05:41:21.654Z,11.12
2018-04-30T05:43:50.867Z,11.26
2018-04-30T05:46:19.367Z,11.36
2018-04-30T05:48:47.655Z,11.47
2018-04-30T05:51:16.298Z,11.46
2018-04-30T05:53:44.643Z,11.33
2018-04-30T05:56:12.919Z,11.27
2018-04-30T05:58:41.210Z,11.38
2018-04-30T06:01:09.543Z,11.60
2018-04-30T06:03:37.815Z,11.53
2018-04-30T06:06:06.202Z,11.50
2018-04-30T06:08:34.507Z,11.72
2018-04-30T06:11:02.615Z,11.88
2018-04-30T06:13:30.891Z,12.20
2018-04-30T06:15:59.172Z,12.51
2018-04-30T06:18:28.210Z,12.93
2018-04-30T06:20:57.019Z,13.64
2018-04-30T06:23:25.306Z,14.39
2018-04-30T06:25:53.803Z,14.87
2018-04-30T06:28:22.078Z,15.39
2018-04-30T06:30:50.368Z,16.61
2018-04-30T06:33:18.927Z,17.22
2018-04-30T06:35:47.222Z,17.12
2018-04-30T06:38:15.487Z,18.46
2018-04-30T06:40:43.807Z,18.51
2018-04-30T06:43:12.864Z,18.17
2018-04-30T06:45:42.579Z,17.88
2018-04-30T06:48:11.166Z,18.47
2018-04-30T06:50:39.610Z,18.35
2018-04-30T06:53:08.350Z,18.79
2018-04-30T06:55:36.762Z,18.70
2018-04-30T06:58:05.804Z,18.22
2018-04-30T07:00:37.233Z,17.48
2018-04-30T07:03:05.518Z,18.60
2018-04-30T07:05:33.797Z,19.26
2018-04-30T07:08:02.115Z,20.43
2018-04-30T07:10:31.859Z,21.31
2018-04-30T07:13:00.226Z,19.18
2018-04-30T07:15:30.291Z,19.82
2018-04-30T07:17:59.092Z,18.34
2018-04-30T07:20:27.455Z,18.61
2018-04-30T07:22:55.762Z,18.80
2018-04-30T07:25:24.057Z,19.37
2018-04-30T07:27:52.851Z,19.86
2018-04-30T07:30:21.111Z,21.55
2018-04-30T07:32:49.391Z,21.70
2018-04-30T07:35:17.671Z,21.32
2018-04-30T07:37:45.870Z,22.24
2018-04-30T07:40:14.147Z,22.02
2018-04-30T07:42:43.191Z,21.14
2018-04-30T07:45:11.919Z,21.37
2018-04-30T07:47:40.959Z,22.21
2018-04-30T07:50:09.303Z,21.03
2018-04-30T07:52:37.619Z,21.81
2018-04-30T07:55:05.899Z,21.97
2018-04-30T07:57:37.711Z,22.28
2018-04-30T08:00:06.534Z,21.31
2018-04-30T08:02:35.603Z,20.62
2018-04-30T08:05:03.879Z,20.60
2018-04-30T08:07:32.762Z,20.79
2018-04-30T08:10:01.747Z,19.24
2018-04-30T08:12:30.182Z,20.06
2018-04-30T08:14:58.539Z,21.13
2018-04-30T08:17:26.803Z,22.17
2018-04-30T08:19:55.097Z,22.89
2018-04-30T08:22:23.706Z,22.25
2018-04-30T08:24:51.982Z,23.77
2018-04-30T08:27:20.259Z,23.73
2018-04-30T08:29:49.758Z,22.80
2018-04-30T08:32:18.041Z,23.37
2018-04-30T08:34:46.319Z,24.87
2018-04-30T08:37:14.635Z,22.77
2018-04-30T08:39:42.921Z,23.32
2018-04-30T08:42:11.215Z,22.94
2018-04-30T08:44:39.556Z,24.66
2018-04-30T08:47:07.890Z,23.92
2018-04-30T08:49:36.175Z,23.13
2018-04-30T08:52:05.122Z,23.87
2018-04-30T08:54:33.417Z,23.77
2018-04-30T08:57:01.755Z,23.46
2018-04-30T08:59:29.854Z,22.63
2018-04-30T09:01:58.347Z,21.55
2018-04-30T09:04:27.193Z,24.08
2018-04-30T09:06:55.493Z,23.44
2018-04-30T09:09:24.455Z,23.40
2018-04-30T09:11:53.738Z,26.16
2018-04-30T09:14:22.039Z,24.03
2018-04-30T09:16:51.120Z,23.44
2018-04-30T09:19:19.425Z,24.33
2018-04-30T09:21:47.699Z,24.11
2018-04-30T09:24:16.215Z,23.03
2018-04-30T09:26:44.547Z,23.66
2018-04-30T09:29:12.894Z,21.69
2018-04-30T09:31:42.183Z,22.68
2018-04-30T09:34:10.686Z,25.71
2018-04-30T09:36:39.190Z,26.58
2018-04-30T09:39:07.479Z,27.42
2018-04-30T09:41:35.870Z,24.78
2018-04-30T09:44:05.339Z,26.12
2018-04-30T09:46:33.939Z,26.91
2018-04-30T09:49:02.355Z,25.23
2018-04-30T09:51:30.631Z,24.15
2018-04-30T09:53:58.910Z,24.66
2018-04-30T09:56:27.211Z,23.97
2018-04-30T09:58:55.505Z,24.40
2018-04-30T10:01:23.982Z,26.18
2018-04-30T10:03:52.314Z,25.09
2018-04-30T10:06:20.676Z,25.64
2018-04-30T10:08:49.659Z,25.05
2018-04-30T10:11:18.383Z,25.45
2018-04-30T10:13:47.844Z,23.83
2018-04-30T10:16:16.122Z,26.15
2018-04-30T10:18:45.410Z,26.18
2018-04-30T10:21:13.694Z,25.12
2018-04-30T10:23:42.140Z,27.18
2018-04-30T10:26:10.368Z,25.17
2018-04-30T10:28:39.511Z,26.36
2018-04-30T10:31:07.726Z,27.35
2018-04-30T10:33:36.038Z,29.09
2018-04-30T10:36:05.081Z,24.55
2018-04-30T10:38:33.362Z,25.69
2018-04-30T10:41:02.054Z,25.95
2018-04-30T10:43:30.731Z,25.82
2018-04-30T10:45:59.523Z,26.96
2018-04-30T10:48:27.799Z,25.37
2018-04-30T10:50:56.079Z,23.57
2018-04-30T10:53:24.415Z,22.72
2018-04-30T10:55:52.755Z,23.30
2018-04-30T10:58:21.327Z,21.64
2018-04-30T11:00:49.628Z,21.81
2018-04-30T11:03:17.914Z,22.70
2018-04-30T11:05:46.263Z,24.07
2018-04-30T11:08:14.539Z,26.65
2018-04-30T11:10:42.814Z,26.23
2018-04-30T11:13:11.126Z,26.24
2018-04-30T11:15:40.447Z,25.26
2018-04-30T11:18:08.751Z,25.01
2018-04-30T11:20:37.234Z,24.39
2018-04-30T11:23:05.518Z,22.84
2018-04-30T11:25:33.798Z,23.11
2018-04-30T11:28:02.377Z,26.40
2018-04-30T11:30:30.659Z,28.27
2018-04-30T11:32:59.366Z,29.59
2018-04-30T11:35:27.710Z,27.48
2018-04-30T11:37:56.012Z,24.50
2018-04-30T11:40:24.878Z,25.92
2018-04-30T11:42:53.169Z,25.44
2018-04-30T11:45:22.214Z,26.00
2018-04-30T11:47:50.538Z,26.10
2018-04-30T11:50:19.835Z,24.23
2018-04-30T11:52:48.126Z,23.82
2018-04-30T11:55:16.467Z,23.00
2018-04-30T11:57:44.760Z,21.99
2018-04-30T12:00:13.049Z,23.85
2018-04-30T12:02:41.390Z,24.80
2018-04-30T12:05:09.727Z,24.64
2018-04-30T12:07:38.018Z,25.63
2018-04-30T12:10:06.357Z,24.07
2018-04-30T12:12:34.939Z,23.00
2018-04-30T12:15:03.235Z,23.73
2018-04-30T12:17:31.583Z,23.23
2018-04-30T12:19:59.879Z,26.31
2018-04-30T12:22:28.166Z,22.91
2018-04-30T12:24:56.515Z,22.18
2018-04-30T12:27:24.826Z,24.61
2018-04-30T12:29:53.278Z,26.17
2018-04-30T12:32:21.542Z,25.40
2018-04-30T12:34:49.839Z,27.90
2018-04-30T12:37:18.134Z,28.29
2018-04-30T12:39:48.187Z,26.34
2018-04-30T12:42:16.573Z,25.28
2018-04-30T12:44:44.867Z,26.50
2018-04-30T12:47:13.211Z,25.77
2018-04-30T12:49:41.573Z,23.44
2018-04-30T12:52:09.808Z,23.16
2018-04-30T12:54:38.754Z,22.49
2018-04-30T12:57:07.207Z,24.55
2018-04-30T12:59:35.499Z,26.05
2018-04-30T13:02:03.850Z,25.95
2018-04-30T13:04:32.139Z,24.89
2018-04-30T13:07:00.435Z,24.43
2018-04-30T13:09:29.514Z,24.49
2018-04-30T13:11:58.094Z,25.60
2018-04-30T13:14:26.827Z,25.42
2018-04-30T13:16:55.159Z,24.61
2018-04-30T13:19:23.439Z,23.02
2018-04-30T13:21:51.962Z,22.25
2018-04-30T13:24:20.486Z,22.83
2018-04-30T13:26:48.966Z,22.71
2018-04-30T13:29:17.262Z,22.53
2018-04-30T13:31:45.587Z,24.40
2018-04-30T13:34:13.874Z,25.02
2018-04-30T13:36:42.151Z,23.09
2018-04-30T13:39:11.243Z,21.55
2018-04-30T13:41:39.535Z,21.17
2018-04-30T13:44:08.435Z,21.94
2018-04-30T13:46:36.735Z,22.11
2018-04-30T13:49:05.723Z,22.15
2018-04-30T13:51:34.059Z,23.66
2018-04-30T13:54:02.643Z,23.31
2018-04-30T13:56:30.918Z,21.52
2018-04-30T13:58:59.238Z,20.41
2018-04-30T14:01:27.522Z,20.11
2018-04-30T14:03:55.807Z,20.20
2018-04-30T14:06:25.646Z,20.03
2018-04-30T14:08:54.843Z,19.97
2018-04-30T14:11:23.374Z,20.17
2018-04-30T14:13:51.684Z,19.98
2018-04-30T14:16:19.963Z,19.66
2018-04-30T14:18:49.028Z,19.38
2018-04-30T14:21:17.338Z,19.58
2018-04-30T14:23:46.226Z,19.75
2018-04-30T14:26:14.530Z,19.54
2018-04-30T14:28:42.821Z,19.65
2018-04-30T14:31:11.145Z,19.84
2018-04-30T14:33:39.430Z,19.04
2018-04-30T14:36:07.738Z,17.94
2018-04-30T14:38:36.017Z,17.31
2018-04-30T14:41:04.450Z,16.97
2018-04-30T14:43:32.760Z,16.89
2018-04-30T14:46:01.055Z,16.36
2018-04-30T14:48:29.338Z,15.93
2018-04-30T14:50:57.675Z,15.72
2018-04-30T14:53:25.959Z,15.81
2018-04-30T14:55:54.239Z,15.97
2018-04-30T14:58:22.605Z,16.12
2018-04-30T15:00:51.463Z,16.30
2018-04-30T15:03:19.958Z,16.56
2018-04-30T15:05:48.275Z,17.04
2018-04-30T15:08:17.020Z,17.94
2018-04-30T15:10:45.602Z,18.87
2018-04-30T15:13:14.299Z,19.47
2018-04-30T15:15:42.574Z,19.57
2018-04-30T15:18:10.859Z,19.70
2018-04-30T15:20:39.584Z,20.39
2018-04-30T15:23:07.859Z,20.15
2018-04-30T15:25:36.149Z,20.57
2018-04-30T15:28:04.980Z,21.31
2018-04-30T15:30:33.271Z,21.62
2018-04-30T15:33:01.563Z,21.60
2018-04-30T15:35:29.884Z,21.03
2018-04-30T15:37:58.162Z,21.57
2018-04-30T15:40:26.443Z,21.55
2018-04-30T15:42:54.904Z,21.11
2018-04-30T15:45:23.416Z,21.04
2018-04-30T15:47:51.706Z,20.96
2018-04-30T15:50:20.011Z,21.34
2018-04-30T15:52:48.615Z,21.98
2018-04-30T15:55:16.946Z,21.60
2018-04-30T15:57:45.327Z,21.47
2018-04-30T16:00:13.607Z,21.35
2018-04-30T16:02:41.883Z,21.08
2018-04-30T16:05:10.207Z,20.42
2018-04-30T16:07:38.483Z,20.45
2018-04-30T16:10:06.763Z,20.14
2018-04-30T16:12:35.790Z,19.63
2018-04-30T16:15:04.066Z,18.82
2018-04-30T16:17:32.999Z,18.40
2018-04-30T16:20:01.332Z,17.97
2018-04-30T16:22:29.730Z,16.36
2018-04-30T16:24:58.017Z,15.54
2018-04-30T16:27:26.204Z,14.99
2018-04-30T16:29:54.408Z,14.85
2018-04-30T16:32:22.703Z,14.89
2018-04-30T16:34:51.047Z,14.88
2018-04-30T16:37:19.330Z,14.88
2018-04-30T16:39:47.615Z,14.96
2018-04-30T16:42:15.942Z,15.14
2018-04-30T16:44:44.220Z,15.37
2018-04-30T16:47:12.599Z,15.58
2018-04-30T16:49:40.850Z,15.65
2018-04-30T16:52:09.699Z,15.69
2018-04-30T16:54:38.171Z,15.76
2018-04-30T16:57:06.486Z,15.78
2018-04-30T16:59:35.306Z,15.88
2018-04-30T17:02:03.698Z,16.01
2018-04-30T17:04:32.022Z,16.68
2018-04-30T17:07:00.340Z,17.02
2018-04-30T17:09:28.619Z,17.05
2018-04-30T17:11:56.922Z,17.16
2018-04-30T17:14:25.203Z,16.91
2018-04-30T17:16:53.482Z,16.62
2018-04-30T17:19:22.154Z,16.29
2018-04-30T17:21:50.979Z,16.42
2018-04-30T17:24:20.115Z,16.82
2018-04-30T17:26:49.627Z,17.04
2018-04-30T17:29:17.910Z,17.31
2018-04-30T17:31:46.195Z,17.43
2018-04-30T17:34:14.532Z,17.01
2018-04-30T17:36:43.067Z,16.89
2018-04-30T17:39:11.363Z,16.54
2018-04-30T17:41:40.934Z,16.09
2018-04-30T17:44:09.216Z,15.89
2018-04-30T17:46:37.502Z,15.52
2018-04-30T17:49:05.840Z,15.34
2018-04-30T17:51:34.247Z,15.22
2018-04-30T17:54:02.585Z,15.15
2018-04-30T17:56:30.985Z,15.16
2018-04-30T17:58:59.259Z,15.13
2018-04-30T18:01:27.552Z,14.97
2018-04-30T18:03:55.875Z,14.98
2018-04-30T18:06:24.158Z,14.93
2018-04-30T18:08:52.434Z,14.88
2018-04-30T18:11:21.742Z,14.77
2018-04-30T18:13:50.206Z,14.73
2018-04-30T18:16:18.754Z,14.75
2018-04-30T18:18:47.059Z,14.75
2018-04-30T18:21:16.113Z,14.61
2018-04-30T18:23:44.426Z,14.52
2018-04-30T18:26:12.753Z,14.44
2018-04-30T18:28:41.035Z,14.40
2018-04-30T18:31:09.738Z,14.31
2018-04-30T18:33:38.051Z,14.25
2018-04-30T18:36:06.347Z,14.15
2018-04-30T18:38:35.329Z,14.10
2018-04-30T18:41:03.886Z,14.03
2018-04-30T18:43:32.775Z,13.99
2018-04-30T18:46:01.090Z,14.06
2018-04-30T18:48:29.383Z,14.09
2018-04-30T18:50:58.113Z,13.92
2018-04-30T18:53:26.694Z,13.96
2018-04-30T18:55:54.975Z,13.91
2018-04-30T18:58:23.253Z,13.89
2018-04-30T19:00:51.611Z,13.86
2018-04-30T19:03:19.887Z,13.79
2018-04-30T19:05:48.165Z,13.67
2018-04-30T19:08:16.467Z,13.54
2018-04-30T19:10:45.451Z,13.45
2018-04-30T19:13:13.627Z,13.46
2018-04-30T19:15:41.719Z,13.46
2018-04-30T19:18:10.977Z,13.40
2018-04-30T19:20:39.306Z,13.36
2018-04-30T19:23:07.599Z,13.49
2018-04-30T19:25:35.959Z,13.44
2018-04-30T19:28:04.246Z,13.54
2018-04-30T19:30:32.523Z,13.53
2018-04-30T19:33:01.092Z,13.58
2018-04-30T19:35:30.143Z,13.58
2018-04-30T19:37:58.482Z,13.56
2018-04-30T19:40:27.534Z,13.50
2018-04-30T19:42:58.766Z,13.58
2018-04-30T19:45:27.747Z,13.66
2018-04-30T19:47:56.008Z,13.58
2018-04-30T19:50:24.309Z,13.61
2018-04-30T19:52:52.698Z,13.56
2018-04-30T19:55:21.691Z,13.52
2018-04-30T19:57:49.868Z,13.54
2018-04-30T20:00:18.356Z,13.62
2018-04-30T20:02:46.640Z,13.73
2018-04-30T20:05:14.938Z,13.75
2018-04-30T20:07:43.293Z,13.69
2018-04-30T20:10:11.602Z,13.68
2018-04-30T20:12:40.647Z,13.72
2018-04-30T20:15:08.962Z,13.73
2018-04-30T20:17:37.238Z,13.57
2018-04-30T20:20:06.042Z,13.44
2018-04-30T20:22:34.299Z,13.37
2018-04-30T20:25:02.935Z,13.30
2018-04-30T20:27:31.258Z,13.40
2018-04-30T20:29:59.537Z,13.58
2018-04-30T20:32:28.555Z,13.60
2018-04-30T20:34:57.590Z,13.66
2018-04-30T20:37:26.734Z,13.69
2018-04-30T20:39:55.432Z,13.67
2018-04-30T20:42:25.082Z,13.60
2018-04-30T20:44:53.762Z,13.68
2018-04-30T20:47:22.735Z,13.73
2018-04-30T20:49:51.672Z,13.79
2018-04-30T20:52:19.954Z,13.88
2018-04-30T20:54:48.699Z,13.80
2018-04-30T20:57:16.981Z,13.66
2018-04-30T20:59:45.265Z,13.58
2018-04-30T21:02:13.595Z,13.58
2018-04-30T21:04:42.546Z,13.60
2018-04-30T21:07:10.843Z,13.57
2018-04-30T21:09:39.147Z,13.49
2018-04-30T21:12:07.423Z,13.49
2018-04-30T21:14:35.759Z,13.44
2018-04-30T21:17:04.043Z,13.41
2018-04-30T21:19:32.094Z,13.37
2018-04-30T21:22:00.743Z,13.36
2018-04-30T21:24:29.042Z,13.39
2018-04-30T21:26:57.533Z,13.29
2018-04-30T21:29:25.808Z,13.39
2018-04-30T21:31:54.143Z,13.43
2018-04-30T21:34:22.456Z,13.32
2018-04-30T21:36:51.497Z,13.34
2018-04-30T21:39:20.075Z,13.15
2018-04-30T21:41:49.079Z,12.94
2018-04-30T21:44:17.401Z,12.59
2018-04-30T21:46:45.601Z,12.52
2018-04-30T21:49:13.922Z,12.38
2018-04-30T21:51:42.528Z,12.33
2018-04-30T21:54:13.279Z,12.37
2018-04-30T21:56:43.095Z,12.42
2018-04-30T21:59:11.394Z,12.50
2018-04-30T22:01:40.331Z,12.52
2018-04-30T22:04:08.734Z,12.65
2018-04-30T22:06:37.014Z,12.75
2018-04-30T22:09:05.945Z,12.69
2018-04-30T22:11:34.270Z,12.73
2018-04-30T22:14:02.554Z,12.77
2018-04-30T22:16:30.838Z,12.74
2018-04-30T22:18:59.742Z,12.75
2018-04-30T22:21:28.027Z,12.83
2018-04-30T22:23:56.415Z,12.80
2018-04-30T22:26:25.078Z,12.77
2018-04-30T22:28:53.794Z,12.71
2018-04-30T22:31:22.079Z,12.64
2018-04-30T22:33:50.612Z,12.73
2018-04-30T22:36:19.439Z,12.78
2018-04-30T22:38:47.718Z,12.81
2018-04-30T22:41:16.043Z,12.81
2018-04-30T22:43:44.322Z,12.69
2018-04-30T22:46:13.127Z,12.71
2018-04-30T22:48:41.648Z,12.73
2018-04-30T22:51:09.931Z,12.75
2018-04-30T22:53:38.590Z,12.59
2018-04-30T22:56:06.886Z,12.52
2018-04-30T22:58:36.156Z,12.39
2018-04-30T23:01:04.478Z,12.28
2018-04-30T23:03:32.757Z,12.35
2018-04-30T23:06:01.037Z,12.44
2018-04-30T23:08:29.414Z,12.43
2018-04-30T23:10:57.695Z,12.42
2018-04-30T23:13:25.978Z,12.34
2018-04-30T23:15:54.282Z,12.28
2018-04-30T23:18:22.474Z,12.36
2018-04-30T23:20:52.408Z,12.29
2018-04-30T23:23:20.692Z,12.27
2018-04-30T23:25:49.347Z,12.21
2018-04-30T23:28:17.628Z,12.17
2018-04-30T23:30:48.074Z,12.15
2018-04-30T23:33:16.699Z,12.24
2018-04-30T23:35:46.879Z,12.10
2018-04-30T23:38:15.483Z,12.12
2018-04-30T23:40:43.795Z,12.13
2018-04-30T23:43:12.888Z,12.16
2018-04-30T23:45:41.427Z,12.11
2018-04-30T23:48:10.216Z,12.11
2018-04-30T23:50:38.498Z,12.18
2018-04-30T23:53:06.852Z,12.23
2018-04-30T23:55:35.267Z,12.26
2018-04-30T23:58:04.715Z,12.05
